This is the latest recevied weather packets stored in our database for station/object EA5GTE-12. If no packets are shown the sender has not sent any weather packets the latest 10 day(s).
| Time | Temp. | Humidity | Pressure | Rain* | Wind** | Luminosity | Snow |
|---|---|---|---|---|---|---|---|
| 1777977446 | 18.89° C | 38% | 935.4 hPa | - | - | - | - |
| 1777976546 | 18.33° C | 43% | 935.7 hPa | - | - | - | - |
| 1777975646 | 21.11° C | 36% | 935.7 hPa | - | - | - | - |
| 1777974746 | 17.22° C | 46% | 935.8 hPa | - | - | - | - |
| 1777973846 | 20° C | 36% | 935.6 hPa | - | - | - | - |
| 1777972946 | 24.44° C | 31% | 935.5 hPa | - | - | - | - |
| 1777972046 | 22.78° C | 35% | 935.7 hPa | - | - | - | - |
| 1777971146 | 21.11° C | 38% | 935.7 hPa | - | - | - | - |
| 1777970245 | 21.67° C | 40% | 935.7 hPa | - | - | - | - |
| 1777969345 | 21.67° C | 38% | 935.9 hPa | - | - | - | - |
| 1777968445 | 18.89° C | 46% | 935.9 hPa | - | - | - | - |
| 1777967545 | 21.11° C | 41% | 936 hPa | - | - | - | - |
| 1777966645 | 20° C | 43% | 936 hPa | - | - | - | - |
| 1777965744 | 21.11° C | 45% | 936 hPa | - | - | - | - |
| 1777963947 | 18.89° C | 51% | 936 hPa | - | - | - | - |
| 1777963047 | 19.44° C | 47% | 936 hPa | - | - | - | - |
| 1777962146 | 18.33° C | 52% | 935.9 hPa | - | - | - | - |
| 1777961246 | 16.67° C | 57% | 935.9 hPa | - | - | - | - |
| 1777960346 | 13.89° C | 78% | 936 hPa | - | - | - | - |
| 1777959446 | 12.22° C | 92% | 936 hPa | - | - | - | - |
| 1777958546 | 8.89° C | 100% | 936 hPa | - | - | - | - |
| 1777957646 | 7.22° C | 100% | 936 hPa | - | - | - | - |
| 1777956746 | 7.22° C | 100% | 936 hPa | - | - | - | - |
| 1777955846 | 7.22° C | 100% | 936.1 hPa | - | - | - | - |
| 1777954946 | 6.67° C | 100% | 936.2 hPa | - | - | - | - |
* Rain since midnight (hover to see other rain measurements)
** Current wind speed in m/s (hover to see current wind gust speed)